createdAt,value
2023-03-27T00:01:27.944Z,68.48
2023-03-27T00:03:55.810Z,66.49
2023-03-27T00:06:25.380Z,68.33
2023-03-27T00:08:52.247Z,67.94
2023-03-27T00:11:21.443Z,68.07
2023-03-27T00:13:51.316Z,68.95
2023-03-27T00:16:22.530Z,69.05
2023-03-27T00:18:49.556Z,68.57
2023-03-27T00:21:16.488Z,67.31
2023-03-27T00:23:43.397Z,68.43
2023-03-27T00:26:12.350Z,68.23
2023-03-27T00:28:39.312Z,69.19
2023-03-27T00:31:12.914Z,68.74
2023-03-27T00:33:40.293Z,68.30
2023-03-27T00:36:07.781Z,68.22
2023-03-27T00:38:34.783Z,67.74
2023-03-27T00:41:01.806Z,67.32
2023-03-27T00:43:29.709Z,67.22
2023-03-27T00:46:17.858Z,66.25
2023-03-27T00:48:48.316Z,65.88
2023-03-27T00:51:15.992Z,67.00
2023-03-27T00:53:42.802Z,67.20
2023-03-27T00:56:10.829Z,67.29
2023-03-27T00:59:02.887Z,67.28
2023-03-27T01:01:30.072Z,67.20
2023-03-27T01:04:03.110Z,67.44
2023-03-27T01:06:30.907Z,67.88
2023-03-27T01:08:57.993Z,67.83
2023-03-27T01:11:47.006Z,68.41
2023-03-27T01:14:42.266Z,68.27
2023-03-27T01:17:18.582Z,67.87
2023-03-27T01:20:23.286Z,66.02
2023-03-27T01:23:12.898Z,65.92
2023-03-27T01:25:57.392Z,65.69
2023-03-27T01:28:30.347Z,64.66
2023-03-27T01:31:17.504Z,64.86
2023-03-27T01:34:24.927Z,64.80
2023-03-27T01:37:25.235Z,64.42
2023-03-27T01:40:00.934Z,64.47
2023-03-27T01:42:31.158Z,64.34
2023-03-27T01:45:19.353Z,63.98
2023-03-27T01:48:12.560Z,64.50
2023-03-27T01:50:51.094Z,64.04
2023-03-27T01:53:17.911Z,64.38
2023-03-27T01:55:47.920Z,64.30
2023-03-27T01:58:49.460Z,64.13
2023-03-27T02:01:19.459Z,64.72
2023-03-27T02:03:49.411Z,64.92
2023-03-27T02:06:25.114Z,64.21
2023-03-27T02:09:22.369Z,64.16
2023-03-27T02:12:02.859Z,64.01
2023-03-27T02:14:33.043Z,64.19
2023-03-27T02:17:02.549Z,64.32
2023-03-27T02:19:34.269Z,64.59
2023-03-27T02:22:01.437Z,65.05
2023-03-27T02:24:29.263Z,64.00
2023-03-27T02:27:17.404Z,64.35
2023-03-27T02:29:55.051Z,64.34
2023-03-27T02:32:28.346Z,63.87
2023-03-27T02:35:47.139Z,64.41
2023-03-27T02:38:25.439Z,65.44
2023-03-27T02:41:00.468Z,65.70
2023-03-27T02:43:41.586Z,65.47
2023-03-27T02:46:14.165Z,65.88
2023-03-27T02:48:44.367Z,65.37
2023-03-27T02:51:25.278Z,65.53
2023-03-27T02:54:29.091Z,65.76
2023-03-27T02:56:57.876Z,64.75
2023-03-27T02:59:31.023Z,65.03
2023-03-27T03:01:57.913Z,65.01
2023-03-27T03:04:30.079Z,65.13
2023-03-27T03:06:56.946Z,64.83
2023-03-27T03:09:25.072Z,64.88
2023-03-27T03:11:54.006Z,64.49
2023-03-27T03:14:26.937Z,64.80
2023-03-27T03:16:53.923Z,64.69
2023-03-27T03:19:21.942Z,64.17
2023-03-27T03:21:50.062Z,63.99
2023-03-27T03:24:17.815Z,64.03
2023-03-27T03:26:45.356Z,63.98
2023-03-27T03:29:13.031Z,64.04
2023-03-27T03:31:45.848Z,64.47
2023-03-27T03:34:16.751Z,64.64
2023-03-27T03:36:45.096Z,63.73
2023-03-27T03:39:12.994Z,64.31
2023-03-27T03:41:39.943Z,64.69
2023-03-27T03:44:07.103Z,64.74
2023-03-27T03:46:34.205Z,64.62
2023-03-27T03:49:01.296Z,64.16
2023-03-27T03:51:28.770Z,64.12
2023-03-27T03:53:55.736Z,64.13
2023-03-27T03:56:22.669Z,64.25
2023-03-27T03:58:49.585Z,64.26
2023-03-27T04:01:20.891Z,64.30
2023-03-27T04:03:48.510Z,64.37
2023-03-27T04:06:21.249Z,63.93
2023-03-27T04:08:48.674Z,64.17
2023-03-27T04:11:15.596Z,63.93
2023-03-27T04:13:42.632Z,64.04
2023-03-27T04:16:09.757Z,64.04
2023-03-27T04:18:39.669Z,63.92
2023-03-27T04:21:15.027Z,64.13
2023-03-27T04:23:43.122Z,63.39
2023-03-27T04:26:12.459Z,64.00
2023-03-27T04:28:39.668Z,64.02
2023-03-27T04:31:07.404Z,63.74
2023-03-27T04:33:35.114Z,64.06
2023-03-27T04:36:06.350Z,64.11
2023-03-27T04:38:37.082Z,64.70
2023-03-27T04:41:06.255Z,64.82
2023-03-27T04:43:37.069Z,65.48
2023-03-27T04:46:06.910Z,65.23
2023-03-27T04:48:34.841Z,65.27
2023-03-27T04:51:01.636Z,64.98
2023-03-27T04:53:30.636Z,65.17
2023-03-27T04:55:57.423Z,64.76
2023-03-27T04:58:26.009Z,63.98
2023-03-27T05:00:56.707Z,64.58
2023-03-27T05:03:28.180Z,64.63
2023-03-27T05:05:55.093Z,64.97
2023-03-27T05:08:22.829Z,64.99
2023-03-27T05:10:49.806Z,65.00
2023-03-27T05:13:16.719Z,64.82
2023-03-27T05:15:43.820Z,64.93
2023-03-27T05:18:10.684Z,64.67
2023-03-27T05:20:37.571Z,64.90
2023-03-27T05:23:04.702Z,65.15
2023-03-27T05:25:32.683Z,65.16
2023-03-27T05:28:00.768Z,65.43
2023-03-27T05:30:28.142Z,65.05
2023-03-27T05:32:58.539Z,64.63
2023-03-27T05:35:25.908Z,64.65
2023-03-27T05:37:53.431Z,64.50
2023-03-27T05:40:22.556Z,64.19
2023-03-27T05:42:50.121Z,64.21
2023-03-27T05:45:17.287Z,63.59
2023-03-27T05:47:57.741Z,63.54
2023-03-27T05:50:28.796Z,62.88
2023-03-27T05:53:14.248Z,63.05
2023-03-27T05:55:41.201Z,63.17
2023-03-27T05:58:10.247Z,63.44
2023-03-27T06:00:38.796Z,63.90
2023-03-27T06:03:07.608Z,63.54
2023-03-27T06:05:34.680Z,63.35
2023-03-27T06:08:02.506Z,62.50
2023-03-27T06:10:30.387Z,62.23
2023-03-27T06:13:01.619Z,62.43
2023-03-27T06:15:29.035Z,62.07
2023-03-27T06:17:56.541Z,62.20
2023-03-27T06:20:25.178Z,61.99
2023-03-27T06:22:53.211Z,61.79
2023-03-27T06:25:20.553Z,61.81
2023-03-27T06:27:47.972Z,61.53
2023-03-27T06:30:16.286Z,60.58
2023-03-27T06:32:47.868Z,61.16
2023-03-27T06:35:15.311Z,60.91
2023-03-27T06:37:42.967Z,58.78
2023-03-27T06:40:10.686Z,59.14
2023-03-27T06:42:38.659Z,59.75
2023-03-27T06:45:06.530Z,58.26
2023-03-27T06:47:44.791Z,57.49
2023-03-27T06:50:15.306Z,54.06
2023-03-27T06:52:42.287Z,50.71
2023-03-27T06:55:15.028Z,46.24
2023-03-27T06:57:44.374Z,41.93
2023-03-27T07:00:23.020Z,39.77
2023-03-27T07:02:54.535Z,40.31
2023-03-27T07:05:21.534Z,42.07
2023-03-27T07:07:49.431Z,44.29
2023-03-27T07:10:16.595Z,45.55
2023-03-27T07:12:50.977Z,46.45
2023-03-27T07:15:18.420Z,47.35
2023-03-27T07:17:52.258Z,47.59
2023-03-27T07:20:20.192Z,48.37
2023-03-27T07:22:47.222Z,49.10
2023-03-27T07:25:14.036Z,49.68
2023-03-27T07:27:40.973Z,49.73
2023-03-27T07:30:08.648Z,50.17
2023-03-27T07:32:37.882Z,50.53
2023-03-27T07:35:05.786Z,50.36
2023-03-27T07:37:32.928Z,51.32
2023-03-27T07:39:59.777Z,51.77
2023-03-27T07:42:26.701Z,51.97
2023-03-27T07:44:53.538Z,52.36
2023-03-27T07:47:21.302Z,52.66
2023-03-27T07:49:48.246Z,52.64
2023-03-27T07:52:16.564Z,53.85
2023-03-27T07:54:43.689Z,54.33
2023-03-27T07:57:11.566Z,53.55
2023-03-27T07:59:38.671Z,54.44
2023-03-27T08:02:05.992Z,55.07
2023-03-27T08:04:33.079Z,54.60
2023-03-27T08:07:00.730Z,55.25
2023-03-27T08:09:27.659Z,56.47
2023-03-27T08:11:54.487Z,55.24
2023-03-27T08:14:21.541Z,55.83
2023-03-27T08:16:48.549Z,56.02
2023-03-27T08:19:16.380Z,55.18
2023-03-27T08:21:43.266Z,55.16
2023-03-27T08:24:10.320Z,55.81
2023-03-27T08:26:37.277Z,55.77
2023-03-27T08:29:04.610Z,56.33
2023-03-27T08:31:31.782Z,55.38
2023-03-27T08:33:58.829Z,55.92
2023-03-27T08:36:25.759Z,56.10
2023-03-27T08:38:55.625Z,57.34
2023-03-27T08:41:28.905Z,63.37
2023-03-27T08:44:06.575Z,52.24
2023-03-27T08:46:49.357Z,48.79
2023-03-27T08:49:20.668Z,52.96
2023-03-27T08:51:59.336Z,56.19
2023-03-27T08:54:31.256Z,57.84
2023-03-27T08:56:58.225Z,59.64
2023-03-27T08:59:27.967Z,60.94
2023-03-27T09:02:06.859Z,60.89
2023-03-27T09:05:09.958Z,62.30
2023-03-27T09:07:37.437Z,61.60
2023-03-27T09:10:17.598Z,61.97
2023-03-27T09:12:55.359Z,61.82
2023-03-27T09:15:27.216Z,61.01
2023-03-27T09:18:06.470Z,61.46
2023-03-27T09:20:35.239Z,61.80
2023-03-27T09:23:34.297Z,61.31
2023-03-27T09:26:07.122Z,60.15
2023-03-27T09:28:42.817Z,60.50
2023-03-27T09:31:29.444Z,58.70
2023-03-27T09:33:57.384Z,59.47
2023-03-27T09:36:27.637Z,58.56
2023-03-27T09:38:58.926Z,58.49
2023-03-27T09:41:29.166Z,57.42
2023-03-27T09:44:26.450Z,57.18
2023-03-27T09:47:04.686Z,56.91
2023-03-27T09:49:31.547Z,55.51
2023-03-27T09:52:00.260Z,56.17
2023-03-27T09:54:31.968Z,56.42
2023-03-27T09:57:01.990Z,56.00
2023-03-27T09:59:29.723Z,55.74
2023-03-27T10:01:58.403Z,55.25
2023-03-27T10:04:26.148Z,56.41
2023-03-27T10:07:05.569Z,57.26
2023-03-27T10:09:34.699Z,57.63
2023-03-27T10:12:05.659Z,58.26
2023-03-27T10:14:46.339Z,57.38
2023-03-27T10:17:29.269Z,57.83
2023-03-27T10:20:18.006Z,58.00
2023-03-27T10:22:56.575Z,58.38
2023-03-27T10:25:32.736Z,57.66
2023-03-27T10:28:22.983Z,57.43
2023-03-27T10:31:24.650Z,57.08
2023-03-27T10:33:51.892Z,57.37
2023-03-27T10:36:18.976Z,58.27
2023-03-27T10:38:49.308Z,57.35
2023-03-27T10:41:27.914Z,57.69
2023-03-27T10:43:57.195Z,56.48
2023-03-27T10:46:26.897Z,56.53
2023-03-27T10:49:30.962Z,56.95
2023-03-27T10:52:23.912Z,55.53
2023-03-27T10:54:54.935Z,53.36
2023-03-27T10:57:24.877Z,54.49
2023-03-27T11:00:13.924Z,53.15
2023-03-27T11:02:48.610Z,51.27
2023-03-27T11:05:26.556Z,49.47
2023-03-27T11:08:06.240Z,49.95
2023-03-27T11:10:46.438Z,49.72
2023-03-27T11:13:33.747Z,49.00
2023-03-27T11:16:10.357Z,48.83
2023-03-27T11:18:39.760Z,49.23
2023-03-27T11:21:14.175Z,49.18
2023-03-27T11:24:01.773Z,48.25
2023-03-27T11:27:00.656Z,48.14
2023-03-27T11:29:30.764Z,48.84
2023-03-27T11:32:03.604Z,48.52
2023-03-27T11:34:43.339Z,49.82
2023-03-27T11:37:30.860Z,49.14
2023-03-27T11:40:18.185Z,59.91
2023-03-27T11:42:45.134Z,43.98
2023-03-27T11:45:13.952Z,41.20
2023-03-27T11:47:44.078Z,41.37
2023-03-27T11:50:22.483Z,42.94
2023-03-27T11:53:07.506Z,43.70
2023-03-27T11:55:58.043Z,42.96
2023-03-27T11:58:32.370Z,44.71
2023-03-27T12:00:59.333Z,44.23
2023-03-27T12:03:36.917Z,44.35
2023-03-27T12:06:14.303Z,44.22
2023-03-27T12:08:51.962Z,43.53
2023-03-27T12:11:18.954Z,43.97
2023-03-27T12:13:58.178Z,45.38
2023-03-27T12:16:52.343Z,47.92
2023-03-27T12:19:38.999Z,45.71
2023-03-27T12:22:24.813Z,46.33
2023-03-27T12:25:35.989Z,46.43
2023-03-27T12:28:22.941Z,48.44
2023-03-27T12:31:31.751Z,49.63
2023-03-27T12:34:06.661Z,58.39
2023-03-27T12:36:38.117Z,46.49
2023-03-27T12:39:22.835Z,46.84
2023-03-27T12:41:49.984Z,46.65
2023-03-27T12:44:29.875Z,48.40
2023-03-27T12:47:24.355Z,48.77
2023-03-27T12:49:59.106Z,50.73
2023-03-27T12:52:26.989Z,51.07
2023-03-27T12:55:19.475Z,50.12
2023-03-27T12:57:47.078Z,50.03
2023-03-27T13:00:25.923Z,50.13
2023-03-27T13:02:56.563Z,50.63
2023-03-27T13:05:54.505Z,50.51
2023-03-27T13:08:40.448Z,51.30
2023-03-27T13:11:38.405Z,51.69
2023-03-27T13:14:42.394Z,51.97
2023-03-27T13:17:21.525Z,50.66
2023-03-27T13:20:10.864Z,51.28
2023-03-27T13:22:40.725Z,50.13
2023-03-27T13:25:51.912Z,51.15
2023-03-27T13:28:19.111Z,49.91
2023-03-27T13:30:51.916Z,50.20
2023-03-27T13:33:31.223Z,49.67
2023-03-27T13:35:58.203Z,48.53
2023-03-27T13:38:49.083Z,47.50
2023-03-27T13:41:44.025Z,48.62
2023-03-27T13:44:33.299Z,48.53
2023-03-27T13:47:22.085Z,48.22
2023-03-27T13:50:17.719Z,47.78
2023-03-27T13:52:57.387Z,47.97
2023-03-27T13:55:28.594Z,48.55
2023-03-27T13:58:23.449Z,48.32
2023-03-27T14:01:08.118Z,47.66
2023-03-27T14:03:53.747Z,48.32
2023-03-27T14:06:48.557Z,48.80
2023-03-27T14:09:30.211Z,48.65
2023-03-27T14:12:06.247Z,48.08
2023-03-27T14:14:37.480Z,47.16
2023-03-27T14:17:31.971Z,47.16
2023-03-27T14:20:11.336Z,46.91
2023-03-27T14:23:19.254Z,48.82
2023-03-27T14:26:02.357Z,48.04
2023-03-27T14:28:35.118Z,48.80
2023-03-27T14:31:06.544Z,47.28
2023-03-27T14:33:34.871Z,48.84
2023-03-27T14:36:05.784Z,48.69
2023-03-27T14:38:34.697Z,49.06
2023-03-27T14:41:06.062Z,50.49
2023-03-27T14:43:33.253Z,51.04
2023-03-27T14:46:03.544Z,50.79
2023-03-27T14:48:39.021Z,52.02
2023-03-27T14:51:16.132Z,52.56
2023-03-27T14:53:44.747Z,53.29
2023-03-27T14:56:42.784Z,53.93
2023-03-27T14:59:14.624Z,54.52
2023-03-27T15:01:42.337Z,54.86
2023-03-27T15:04:11.509Z,55.23
2023-03-27T15:06:38.710Z,55.14
2023-03-27T15:09:05.907Z,55.20
2023-03-27T15:11:38.767Z,53.85
2023-03-27T15:14:06.695Z,55.32
2023-03-27T15:16:36.148Z,54.75
2023-03-27T15:19:10.032Z,53.35
2023-03-27T15:21:46.819Z,53.88
2023-03-27T15:24:52.374Z,53.51
2023-03-27T15:27:27.275Z,53.66
2023-03-27T15:30:01.495Z,53.06
2023-03-27T15:32:42.622Z,52.89
2023-03-27T15:35:13.977Z,52.36
2023-03-27T15:37:40.902Z,53.02
2023-03-27T15:40:36.999Z,52.37
2023-03-27T15:43:14.243Z,51.84
2023-03-27T15:45:43.125Z,53.06
2023-03-27T15:48:16.004Z,58.45
2023-03-27T15:51:00.150Z,53.03
2023-03-27T15:53:56.044Z,49.04
2023-03-27T15:56:41.523Z,47.65
2023-03-27T15:59:10.021Z,46.21
2023-03-27T16:01:53.571Z,48.64
2023-03-27T16:04:26.766Z,50.70
2023-03-27T16:06:54.922Z,51.36
2023-03-27T16:09:34.665Z,52.07
2023-03-27T16:12:01.620Z,52.74
2023-03-27T16:14:57.384Z,53.83
2023-03-27T16:17:39.706Z,54.29
2023-03-27T16:20:13.098Z,53.46
2023-03-27T16:22:40.615Z,53.74
2023-03-27T16:25:10.229Z,54.58
2023-03-27T16:27:37.846Z,55.37
2023-03-27T16:30:09.375Z,56.00
2023-03-27T16:32:37.205Z,55.94
2023-03-27T16:35:04.309Z,56.21
2023-03-27T16:37:31.272Z,55.53
2023-03-27T16:39:58.208Z,55.44
2023-03-27T16:42:26.359Z,56.34
2023-03-27T16:44:53.768Z,56.05
2023-03-27T16:47:23.220Z,56.65
2023-03-27T16:50:03.576Z,57.21
2023-03-27T16:52:37.732Z,56.80
2023-03-27T16:55:07.277Z,56.41
2023-03-27T16:57:36.519Z,56.49
2023-03-27T17:00:05.589Z,56.40
2023-03-27T17:02:34.674Z,56.51
2023-03-27T17:05:07.141Z,56.86
2023-03-27T17:07:34.353Z,57.15
2023-03-27T17:10:01.251Z,57.68
2023-03-27T17:12:29.500Z,58.27
2023-03-27T17:14:56.790Z,58.31
2023-03-27T17:17:23.914Z,59.07
2023-03-27T17:19:50.896Z,59.24
2023-03-27T17:22:17.905Z,59.53
2023-03-27T17:24:56.204Z,59.31
2023-03-27T17:27:26.960Z,59.23
2023-03-27T17:29:56.515Z,60.25
2023-03-27T17:32:27.195Z,61.02
2023-03-27T17:34:54.557Z,60.70
2023-03-27T17:37:21.706Z,59.67
2023-03-27T17:39:48.918Z,60.37
2023-03-27T17:42:15.870Z,61.13
2023-03-27T17:44:44.948Z,61.52
2023-03-27T17:47:12.331Z,61.72
2023-03-27T17:49:39.867Z,61.96
2023-03-27T17:52:11.499Z,62.38
2023-03-27T17:54:38.476Z,62.59
2023-03-27T17:57:05.946Z,62.66
2023-03-27T17:59:32.870Z,62.72
2023-03-27T18:01:59.877Z,63.00
2023-03-27T18:04:26.870Z,63.43
2023-03-27T18:06:53.758Z,63.48
2023-03-27T18:09:20.719Z,63.37
2023-03-27T18:11:47.625Z,63.99
2023-03-27T18:14:14.532Z,63.82
2023-03-27T18:16:41.961Z,64.17
2023-03-27T18:19:09.425Z,64.13
2023-03-27T18:21:36.340Z,64.27
2023-03-27T18:24:03.809Z,63.77
2023-03-27T18:26:30.749Z,63.26
2023-03-27T18:28:58.156Z,63.06
2023-03-27T18:31:25.585Z,62.92
2023-03-27T18:33:52.632Z,62.38
2023-03-27T18:36:19.579Z,62.52
2023-03-27T18:38:49.671Z,61.92
2023-03-27T18:41:17.107Z,62.12
2023-03-27T18:43:44.103Z,62.86
2023-03-27T18:46:17.146Z,62.81
2023-03-27T18:48:45.737Z,62.96
2023-03-27T18:51:12.784Z,62.92
2023-03-27T18:53:39.764Z,63.03
2023-03-27T18:56:07.695Z,63.41
2023-03-27T18:58:35.576Z,63.43
2023-03-27T19:01:02.755Z,63.41
2023-03-27T19:03:35.440Z,62.65
2023-03-27T19:06:03.976Z,61.94
2023-03-27T19:08:30.835Z,61.76
2023-03-27T19:10:58.082Z,61.69
2023-03-27T19:13:25.524Z,60.09
2023-03-27T19:15:52.609Z,59.12
2023-03-27T19:18:19.608Z,58.82
2023-03-27T19:20:46.904Z,59.30
2023-03-27T19:23:14.396Z,59.05
2023-03-27T19:25:41.380Z,58.72
2023-03-27T19:28:08.332Z,58.27
2023-03-27T19:30:35.581Z,57.52
2023-03-27T19:33:02.599Z,57.53
2023-03-27T19:35:29.625Z,58.83
2023-03-27T19:37:56.533Z,58.51
2023-03-27T19:40:23.547Z,59.23
2023-03-27T19:42:50.700Z,59.53
2023-03-27T19:45:17.805Z,60.14
2023-03-27T19:47:44.721Z,61.20
2023-03-27T19:50:11.650Z,60.92
2023-03-27T19:52:39.117Z,61.02
2023-03-27T19:55:07.234Z,61.27
2023-03-27T19:57:34.135Z,62.53
2023-03-27T20:00:01.768Z,61.90
2023-03-27T20:02:28.977Z,62.09
2023-03-27T20:04:55.897Z,62.84
2023-03-27T20:07:22.819Z,62.45
2023-03-27T20:09:52.366Z,62.23
2023-03-27T20:12:20.133Z,62.47
2023-03-27T20:15:02.017Z,63.81
2023-03-27T20:17:33.975Z,64.61
2023-03-27T20:20:00.994Z,64.56
2023-03-27T20:22:29.886Z,65.21
2023-03-27T20:24:56.824Z,65.94
2023-03-27T20:27:23.784Z,67.01
2023-03-27T20:29:50.875Z,67.78
2023-03-27T20:32:17.839Z,68.61
2023-03-27T20:34:46.703Z,68.33
2023-03-27T20:37:13.706Z,68.80
2023-03-27T20:39:47.346Z,69.48
2023-03-27T20:42:15.778Z,70.47
2023-03-27T20:44:44.608Z,70.91
2023-03-27T20:47:12.639Z,70.57
2023-03-27T20:49:41.708Z,70.48
2023-03-27T20:52:10.527Z,70.75
2023-03-27T20:54:37.604Z,70.87
2023-03-27T20:57:04.675Z,71.75
2023-03-27T20:59:31.660Z,72.15
2023-03-27T21:01:59.578Z,72.30
2023-03-27T21:04:26.914Z,72.39
2023-03-27T21:06:55.032Z,71.82
2023-03-27T21:09:22.959Z,72.14
2023-03-27T21:11:49.949Z,72.47
2023-03-27T21:14:17.077Z,72.65
2023-03-27T21:16:44.075Z,72.60
2023-03-27T21:19:12.221Z,72.86
2023-03-27T21:21:39.278Z,73.20
2023-03-27T21:24:06.609Z,73.24
2023-03-27T21:26:34.122Z,73.50
2023-03-27T21:29:01.458Z,73.64
2023-03-27T21:31:28.288Z,73.52
2023-03-27T21:33:55.452Z,72.77
2023-03-27T21:36:22.440Z,71.99
2023-03-27T21:38:49.441Z,72.15
2023-03-27T21:41:16.740Z,72.11
2023-03-27T21:43:43.646Z,70.79
2023-03-27T21:46:10.951Z,70.91
2023-03-27T21:48:40.820Z,71.29
2023-03-27T21:51:08.734Z,71.55
2023-03-27T21:53:35.944Z,71.79
2023-03-27T21:56:03.136Z,72.28
2023-03-27T21:58:30.109Z,72.47
2023-03-27T22:00:57.661Z,72.78
2023-03-27T22:03:25.945Z,73.43
2023-03-27T22:06:01.473Z,73.17
2023-03-27T22:08:39.017Z,73.51
2023-03-27T22:11:06.081Z,73.82
2023-03-27T22:13:37.800Z,73.88
2023-03-27T22:16:12.818Z,73.75
2023-03-27T22:18:40.365Z,73.99
2023-03-27T22:21:24.610Z,73.92
2023-03-27T22:23:52.272Z,74.22
2023-03-27T22:26:20.749Z,74.49
2023-03-27T22:28:47.888Z,74.89
2023-03-27T22:31:15.279Z,74.98
2023-03-27T22:33:42.449Z,75.20
2023-03-27T22:36:09.894Z,75.04
2023-03-27T22:38:36.909Z,75.02
2023-03-27T22:41:04.925Z,75.09
2023-03-27T22:43:31.947Z,74.86
2023-03-27T22:46:08.472Z,74.83
2023-03-27T22:48:35.583Z,74.55
2023-03-27T22:51:03.428Z,74.90
2023-03-27T22:53:32.130Z,75.04
2023-03-27T22:55:59.817Z,75.42
2023-03-27T22:58:27.420Z,75.61
2023-03-27T23:00:54.882Z,75.53
2023-03-27T23:03:22.081Z,75.20
2023-03-27T23:05:49.834Z,74.92
2023-03-27T23:08:18.211Z,74.63
2023-03-27T23:10:45.473Z,74.37
2023-03-27T23:13:12.756Z,74.47
2023-03-27T23:15:39.735Z,74.04
2023-03-27T23:18:06.990Z,74.14
2023-03-27T23:20:33.964Z,73.89
2023-03-27T23:23:01.074Z,74.13
2023-03-27T23:25:28.064Z,74.11
2023-03-27T23:27:55.277Z,73.99
2023-03-27T23:30:22.327Z,73.91
2023-03-27T23:32:49.535Z,73.77
2023-03-27T23:35:17.274Z,73.84
2023-03-27T23:37:44.168Z,73.99
2023-03-27T23:40:13.568Z,73.99
2023-03-27T23:42:40.840Z,74.28
2023-03-27T23:45:08.477Z,74.51
2023-03-27T23:47:36.077Z,74.78
2023-03-27T23:50:03.459Z,75.14
2023-03-27T23:52:30.459Z,75.04
2023-03-27T23:54:57.631Z,75.25
2023-03-27T23:57:25.741Z,75.49
2023-03-27T23:59:52.888Z,75.29
